Time;durP1;ratioP1;P1;durP2;ratioP2;P2;SDS_P1;SDS_P2;PMS_P1;PMS_P2;Temp;Humidity;BMP_temperature;BMP_pressure;BME280_temperature;BME280_humidity;BME280_pressure;Samples;Min_cycle;Max_cycle;Signal;HPM_P1;HPM_P2
2023/09/01 04:02:41;;;;;;;0.60;0.20;;;;;;;;;;4896120;29;20473;-74
2023/09/01 04:05:10;;;;;;;0.60;0.10;;;16.90;1.00;;;;;;4896581;29;20532;-74
2023/09/01 04:07:38;;;;;;;0.60;0.10;;;;;;;;;;4896867;29;20473;-75
2023/09/01 04:10:08;;;;;;;0.60;0.10;;;16.90;1.00;;;;;;4896124;29;20545;-75
2023/09/01 04:12:36;;;;;;;0.60;0.10;;;;;;;;;;4897071;29;20513;-74
2023/09/01 04:15:06;;;;;;;0.60;0.20;;;16.90;1.00;;;;;;4897244;29;20950;-75
2023/09/01 04:17:34;;;;;;;0.60;0.10;;;16.90;1.00;;;;;;4896214;29;20489;-76
2023/09/01 04:20:06;;;;;;;0.60;0.10;;;16.90;1.00;;;;;;4895484;29;20520;-77
2023/09/01 04:22:34;;;;;;;0.60;0.10;;;16.90;1.00;;;;;;4896658;29;20469;-76
2023/09/01 04:25:04;;;;;;;0.60;0.17;;;16.90;1.00;;;;;;4896347;29;20545;-75
2023/09/01 04:27:34;;;;;;;0.60;0.10;;;15.30;1.00;;;;;;4896489;29;20437;-75
2023/09/01 04:30:03;;;;;;;0.60;0.20;;;16.90;1.00;;;;;;4895812;29;20485;-75
2023/09/01 04:32:37;;;;;;;0.60;0.10;;;20.40;1.00;;;;;;4896530;29;20823;-76
2023/09/01 04:35:08;;;;;;;0.60;0.10;;;16.90;1.00;;;;;;4895367;29;20456;-75
2023/09/01 04:37:36;;;;;;;0.60;0.20;;;16.90;1.00;;;;;;4895622;29;20490;-76
2023/09/01 04:40:06;;;;;;;0.60;0.20;;;16.80;1.00;;;;;;4895944;29;20454;-76
2023/09/01 04:42:34;;;;;;;0.60;0.10;;;16.80;1.00;;;;;;4895294;29;21078;-76
2023/09/01 04:45:03;;;;;;;0.60;0.10;;;;;;;;;;4895552;29;20529;-76
2023/09/01 04:47:32;;;;;;;0.60;0.10;;;;;;;;;;4895452;29;20540;-75
2023/09/01 04:50:00;;;;;;;0.60;0.20;;;;;;;;;;4895941;29;20441;-77
2023/09/01 04:52:29;;;;;;;0.60;0.10;;;16.80;1.00;;;;;;4896133;29;20470;-76
2023/09/01 04:55:10;;;;;;;0.60;0.10;;;;;;;;;;4882326;29;20923;-75
2023/09/01 04:57:38;;;;;;;0.60;0.10;;;;;;;;;;4896134;29;20858;-76
2023/09/01 05:00:15;;;;;;;0.60;0.10;;;16.80;1.00;;;;;;4896020;29;20476;-76
2023/09/01 05:02:45;;;;;;;0.60;0.10;;;;;;;;;;4896293;29;20445;-75
2023/09/01 05:05:14;;;;;;;0.60;0.10;;;16.90;1.00;;;;;;4896882;29;20457;-77
2023/09/01 05:07:43;;;;;;;0.60;0.10;;;16.90;1.00;;;;;;4896255;29;20872;-75
2023/09/01 05:10:11;;;;;;;0.60;0.10;;;16.90;1.00;;;;;;4900272;29;20866;-76
2023/09/01 05:12:39;;;;;;;1.10;1.10;;;16.90;1.00;;;;;;4900103;29;20453;-76
2023/09/01 05:15:08;;;;;;;0.60;0.10;;;16.90;1.00;;;;;;4900157;29;20449;-76
2023/09/01 05:17:36;;;;;;;0.60;0.10;;;16.90;1.00;;;;;;4880318;29;20539;-75
2023/09/01 05:20:07;;;;;;;0.60;0.10;;;;;;;;;;4899186;29;20765;-76
2023/09/01 05:22:35;;;;;;;0.60;0.10;;;16.90;1.00;;;;;;4899524;29;20483;-76
2023/09/01 05:25:05;;;;;;;0.60;0.10;;;17.00;1.00;;;;;;4899711;29;20464;-76
2023/09/01 05:27:33;;;;;;;0.60;0.10;;;17.00;1.00;;;;;;4899750;29;20473;-76
2023/09/01 05:30:01;;;;;;;0.60;0.10;;;17.10;1.00;;;;;;4899898;29;20544;-75
2023/09/01 05:32:30;;;;;;;0.60;0.10;;;17.10;1.00;;;;;;4899510;29;20476;-75
2023/09/01 05:34:58;;;;;;;0.60;0.10;;;17.10;1.00;;;;;;4899839;29;20539;-75
2023/09/01 05:37:26;;;;;;;0.60;0.10;;;;;;;;;;4900170;29;20493;-76
2023/09/01 05:39:55;;;;;;;0.60;0.20;;;17.10;1.00;;;;;;4902888;29;20548;-76
2023/09/01 05:42:24;;;;;;;0.60;0.10;;;17.10;1.00;;;;;;4903208;29;20880;-76
2023/09/01 05:44:52;;;;;;;0.60;0.10;;;17.10;1.00;;;;;;4902136;29;20453;-76
2023/09/01 05:47:20;;;;;;;0.60;0.10;;;17.10;1.00;;;;;;4900071;29;20532;-69
2023/09/01 05:49:48;;;;;;;0.60;0.10;;;17.20;1.00;;;;;;4898237;29;20446;-74
2023/09/01 05:52:16;;;;;;;0.60;0.10;;;17.40;1.00;;;;;;4896350;29;20473;-72
2023/09/01 05:54:44;;;;;;;0.60;0.10;;;;;;;;;;4898463;29;20446;-72
2023/09/01 05:57:12;;;;;;;0.60;0.10;;;17.60;1.00;;;;;;4898462;29;20485;-72
2023/09/01 05:59:42;;;;;;;0.60;0.10;;;17.80;1.00;;;;;;4897276;29;20552;-72
2023/09/01 06:02:10;;;;;;;0.60;0.10;;;17.90;1.00;;;;;;4896752;29;20487;-72
2023/09/01 06:04:38;;;;;;;0.60;0.10;;;18.10;1.00;;;;;;4898427;29;20498;-72
2023/09/01 06:07:08;;;;;;;0.60;0.10;;;;;;;;;;4898863;29;20450;-71
2023/09/01 06:09:36;;;;;;;0.60;0.20;;;18.20;1.00;;;;;;4898930;29;20469;-70
2023/09/01 06:12:04;;;;;;;0.60;0.10;;;18.20;99.90;;;;;;4898378;29;20505;-71
2023/09/01 06:14:32;;;;;;;0.60;0.10;;;18.30;99.90;;;;;;4898165;29;20454;-71
2023/09/01 06:17:02;;;;;;;0.60;0.10;;;18.30;99.90;;;;;;4897857;29;20522;-71
2023/09/01 06:19:30;;;;;;;0.60;0.20;;;;;;;;;;4898032;29;20470;-71
2023/09/01 06:21:58;;;;;;;0.60;0.10;;;18.30;99.90;;;;;;4898880;29;20481;-72
2023/09/01 06:24:26;;;;;;;0.60;0.10;;;18.40;99.90;;;;;;4897878;29;20942;-72
2023/09/01 06:26:55;;;;;;;0.60;0.10;;;18.50;99.90;;;;;;4897723;29;20534;-72
2023/09/01 06:29:23;;;;;;;0.60;0.10;;;;;;;;;;4897472;29;20501;-73
2023/09/01 06:31:51;;;;;;;0.60;0.10;;;18.50;99.90;;;;;;4897392;29;20481;-73
2023/09/01 06:34:20;;;;;;;0.60;0.10;;;18.50;99.90;;;;;;4897380;29;20550;-72
2023/09/01 06:36:48;;;;;;;0.60;0.10;;;18.50;99.90;;;;;;4897766;29;20446;-71
2023/09/01 06:39:18;;;;;;;0.60;0.10;;;18.50;99.90;;;;;;4897953;29;20451;-72
2023/09/01 06:41:46;;;;;;;0.60;0.10;;;18.50;99.90;;;;;;4897859;29;20462;-72
2023/09/01 06:44:14;;;;;;;0.60;0.20;;;18.40;99.90;;;;;;4897328;29;20457;-73
2023/09/01 06:46:42;;;;;;;1.63;1.53;;;18.50;99.90;;;;;;4897981;29;20457;-73
2023/09/01 06:49:10;;;;;;;0.60;0.10;;;;;;;;;;4897446;29;21022;-73
2023/09/01 06:51:39;;;;;;;0.60;0.20;;;18.40;99.90;;;;;;4897737;29;20510;-73
2023/09/01 06:54:10;;;;;;;0.60;0.20;;;18.30;99.90;;;;;;4897953;29;20449;-75
2023/09/01 06:56:38;;;;;;;0.60;0.10;;;18.30;99.90;;;;;;4897680;29;20477;-76
2023/09/01 06:59:06;;;;;;;2.10;2.00;;;18.20;99.90;;;;;;4897693;29;20580;-75
2023/09/01 07:01:34;;;;;;;1.77;0.30;;;18.20;99.90;;;;;;4897767;29;20517;-75
2023/09/01 07:04:03;;;;;;;0.60;0.10;;;18.10;99.90;;;;;;4890294;29;20461;-76
2023/09/01 07:06:31;;;;;;;0.60;0.10;;;18.00;99.90;;;;;;4897036;29;20469;-76
2023/09/01 07:09:00;;;;;;;0.60;0.17;;;18.10;99.90;;;;;;4897606;29;20451;-75
2023/09/01 07:11:28;;;;;;;0.60;0.20;;;18.10;99.90;;;;;;4897142;29;20565;-75
2023/09/01 07:13:56;;;;;;;0.60;0.20;;;18.10;99.90;;;;;;4897840;29;20458;-75
2023/09/01 07:16:24;;;;;;;0.60;0.20;;;;;;;;;;4897114;29;20509;-74
2023/09/01 07:18:53;;;;;;;0.63;0.30;;;;;;;;;;4897138;29;20489;-75
2023/09/01 07:21:22;;;;;;;0.60;0.10;;;;;;;;;;4896743;29;20849;-73
2023/09/01 07:23:50;;;;;;;3.83;2.00;;;;;;;;;;4897344;29;20509;-74
2023/09/01 07:26:20;;;;;;;0.60;0.17;;;17.60;99.90;;;;;;4896841;29;20468;-74
2023/09/01 07:28:48;;;;;;;0.60;0.20;;;;;;;;;;4897367;29;20452;-76
2023/09/01 07:31:16;;;;;;;0.60;0.10;;;17.70;1.00;;;;;;4897193;29;20530;-75
2023/09/01 07:33:45;;;;;;;0.60;0.10;;;17.70;1.00;;;;;;4897318;29;20544;-74
2023/09/01 07:36:13;;;;;;;0.60;0.10;;;;;;;;;;4896857;29;20449;-74
2023/09/01 07:38:42;;;;;;;0.80;0.70;;;17.60;1.00;;;;;;4896621;29;20521;-74
2023/09/01 07:41:09;;;;;;;0.60;0.10;;;17.50;1.00;;;;;;4895958;29;20541;-75
2023/09/01 07:43:39;;;;;;;0.60;0.10;;;17.50;1.00;;;;;;4896635;29;20900;-75
2023/09/01 07:46:07;;;;;;;0.60;0.20;;;;;;;;;;4896970;29;20450;-77
2023/09/01 07:48:35;;;;;;;1.90;1.30;;;20.00;1.00;;;;;;4896790;29;20479;-74
2023/09/01 07:51:03;;;;;;;0.60;0.10;;;17.60;1.00;;;;;;4896732;29;20808;-75
2023/09/01 07:53:31;;;;;;;0.60;0.10;;;17.70;1.00;;;;;;4896641;29;20935;-75
2023/09/01 07:55:59;;;;;;;0.60;0.13;;;17.70;1.00;;;;;;4896788;29;20542;-75
2023/09/01 07:58:30;;;;;;;0.60;0.20;;;;;;;;;;4896604;29;20572;-76
2023/09/01 08:01:00;;;;;;;0.60;0.13;;;17.70;1.00;;;;;;4896900;29;20487;-75
2023/09/01 08:03:27;;;;;;;0.60;0.10;;;17.80;1.00;;;;;;4888619;29;20533;-76
2023/09/01 08:05:56;;;;;;;0.60;0.10;;;17.80;1.00;;;;;;4895508;29;20973;-79
2023/09/01 08:08:24;;;;;;;0.60;0.10;;;;;;;;;;4896301;29;20526;-74
2023/09/01 08:10:52;;;;;;;0.60;0.13;;;;;;;;;;4896030;29;20541;-75
2023/09/01 08:13:22;;;;;;;0.60;0.10;;;;;;;;;;4894401;29;21062;-74
2023/09/01 08:15:50;;;;;;;0.60;0.10;;;;;;;;;;4895435;29;20490;-74
2023/09/01 08:18:20;;;;;;;0.60;0.10;;;18.10;1.00;;;;;;4895995;29;20520;-76
2023/09/01 08:20:50;;;;;;;0.60;0.20;;;;;;;;;;4896239;29;20584;-74
2023/09/01 08:23:21;;;;;;;0.60;0.10;;;18.20;1.00;;;;;;4896624;29;20482;-73
2023/09/01 08:25:50;;;;;;;0.60;0.10;;;;;;;;;;4894890;29;20624;-75
2023/09/01 08:28:18;;;;;;;0.60;0.10;;;;;;;;;;4895832;29;20468;-75
2023/09/01 08:30:47;;;;;;;0.60;0.10;;;;;;;;;;4895804;29;20483;-75
2023/09/01 08:33:17;;;;;;;0.60;0.20;;;18.30;1.00;;;;;;4895899;29;20961;-75
2023/09/01 08:35:47;;;;;;;0.60;0.10;;;18.30;1.00;;;;;;4895246;29;20459;-75
2023/09/01 08:38:14;;;;;;;0.60;0.10;;;18.30;1.00;;;;;;4895636;29;20559;-75
2023/09/01 08:40:43;;;;;;;0.60;0.10;;;18.30;1.00;;;;;;4895897;29;20477;-75
2023/09/01 08:43:13;;;;;;;0.60;0.10;;;18.40;1.00;;;;;;4895296;29;20605;-75
2023/09/01 08:45:41;;;;;;;0.60;0.10;;;18.40;1.00;;;;;;4895585;29;20486;-74
2023/09/01 08:48:09;;;;;;;0.60;0.20;;;18.40;1.00;;;;;;4895556;29;20459;-75
2023/09/01 08:50:38;;;;;;;0.60;0.10;;;18.40;1.00;;;;;;4888689;29;20467;-75
2023/09/01 08:53:07;;;;;;;0.60;0.17;;;20.00;1.00;;;;;;4896083;29;20450;-76
2023/09/01 08:55:37;;;;;;;0.60;0.10;;;;;;;;;;4895916;29;20459;-75
2023/09/01 08:58:06;;;;;;;0.60;0.30;;;;;;;;;;4896629;29;20458;-75
2023/09/01 09:00:34;;;;;;;0.60;0.10;;;18.40;1.00;;;;;;4895934;29;21127;-75
2023/09/01 09:03:03;;;;;;;0.60;0.10;;;18.40;1.00;;;;;;4896062;29;20546;-75
2023/09/01 09:05:35;;;;;;;0.60;0.20;;;18.50;1.00;;;;;;4888040;29;20448;-75
2023/09/01 09:08:07;;;;;;;0.60;0.10;;;18.50;1.00;;;;;;4896212;29;20512;-75
2023/09/01 09:10:37;;;;;;;0.60;0.10;;;18.50;1.00;;;;;;4896163;29;20477;-75
2023/09/01 09:13:20;;;;;;;0.60;0.10;;;18.40;1.00;;;;;;4896668;29;20528;-74
2023/09/01 09:16:07;;;;;;;0.60;0.10;;;18.40;1.00;;;;;;4895974;29;20451;-76
2023/09/01 09:18:36;;;;;;;0.60;0.10;;;;;;;;;;4896274;29;20494;-75
2023/09/01 09:21:04;;;;;;;0.60;0.10;;;18.40;1.00;;;;;;4896695;29;20535;-76
2023/09/01 09:23:44;;;;;;;0.60;0.20;;;18.40;1.00;;;;;;4896926;29;20831;-77
2023/09/01 09:26:12;;;;;;;0.60;0.10;;;18.50;1.00;;;;;;4896355;29;20461;-76
2023/09/01 09:28:41;;;;;;;0.60;0.10;;;18.50;1.00;;;;;;4898410;29;20449;-75
2023/09/01 09:31:09;;;;;;;0.60;0.10;;;18.60;1.00;;;;;;4899462;29;20481;-75
2023/09/01 09:33:38;;;;;;;0.60;0.10;;;18.70;1.00;;;;;;4896664;29;20529;-74
2023/09/01 09:36:06;;;;;;;0.60;0.10;;;;;;;;;;4896653;29;20525;-75
2023/09/01 09:38:43;;;;;;;0.60;0.10;;;18.80;1.00;;;;;;4895387;29;20452;-75
2023/09/01 09:41:11;;;;;;;0.60;0.20;;;18.90;1.00;;;;;;4895135;29;20477;-76
2023/09/01 09:43:46;;;;;;;0.60;0.10;;;18.90;1.00;;;;;;4895460;29;20455;-75
2023/09/01 09:46:15;;;;;;;1.00;0.50;;;19.00;1.00;;;;;;4895464;29;20537;-75
2023/09/01 09:48:44;;;;;;;0.60;0.20;;;19.00;1.00;;;;;;4895423;29;20574;-76
2023/09/01 09:51:19;;;;;;;0.60;0.20;;;19.00;1.00;;;;;;4895271;29;20465;-75
2023/09/01 09:53:51;;;;;;;0.60;0.10;;;19.00;1.00;;;;;;4894643;29;20467;-75
2023/09/01 09:56:30;;;;;;;0.60;0.10;;;19.00;1.00;;;;;;4895251;29;20943;-74
2023/09/01 09:59:03;;;;;;;0.60;0.10;;;18.30;1.00;;;;;;4895368;29;20603;-76
2023/09/01 10:01:35;;;;;;;0.60;0.30;;;19.00;1.00;;;;;;4895238;29;20480;-76
2023/09/01 10:04:04;;;;;;;0.60;0.10;;;19.10;1.00;;;;;;4897878;29;20453;-76
2023/09/01 10:06:33;;;;;;;0.60;0.10;;;19.10;1.00;;;;;;4896717;29;20493;-75
2023/09/01 10:09:03;;;;;;;0.60;0.13;;;19.10;1.00;;;;;;4897973;29;20458;-75
2023/09/01 10:11:31;;;;;;;0.60;0.10;;;19.20;1.00;;;;;;4898588;29;20564;-75
2023/09/01 10:14:00;;;;;;;0.70;0.40;;;19.20;1.00;;;;;;4897200;29;20974;-75
2023/09/01 10:16:30;;;;;;;0.60;0.10;;;19.20;1.00;;;;;;4897038;29;20484;-76
2023/09/01 10:18:59;;;;;;;0.60;0.27;;;19.20;1.00;;;;;;4897457;29;20490;-75
2023/09/01 10:21:27;;;;;;;0.60;0.20;;;19.30;1.00;;;;;;4898297;29;20502;-74
2023/09/01 10:23:56;;;;;;;0.60;0.20;;;19.30;1.00;;;;;;4898698;29;20457;-72
2023/09/01 10:26:25;;;;;;;0.60;0.10;;;19.40;1.00;;;;;;4897706;29;20545;-75
2023/09/01 10:28:55;;;;;;;0.60;0.10;;;19.50;1.00;;;;;;4898001;29;20970;-74
2023/09/01 10:31:23;;;;;;;0.80;0.40;;;19.50;1.00;;;;;;4898037;29;20481;-75
2023/09/01 10:34:09;;;;;;;0.60;0.10;;;19.80;1.00;;;;;;4898399;29;20555;-75
2023/09/01 10:36:38;;;;;;;0.60;0.10;;;19.60;1.00;;;;;;4898629;29;20474;-75
2023/09/01 10:39:22;;;;;;;0.60;0.10;;;19.60;1.00;;;;;;4900977;29;20665;-75
2023/09/01 10:42:00;;;;;;;0.60;0.10;;;19.70;1.00;;;;;;4897761;29;21061;-75
2023/09/01 10:45:14;;;;;;;0.60;0.20;;;19.70;1.00;;;;;;4903834;29;20469;-74
2023/09/01 10:47:42;;;;;;;0.60;0.10;;;;;;;;;;4850235;29;20525;-74
2023/09/01 10:50:12;;;;;;;0.60;0.10;;;19.70;1.00;;;;;;4881563;29;20815;-75
2023/09/01 10:52:42;;;;;;;0.60;0.10;;;19.80;1.00;;;;;;4898987;29;20565;-75
2023/09/01 10:55:10;;;;;;;0.90;0.20;;;19.70;1.00;;;;;;4898306;29;20450;-75
2023/09/01 10:57:44;;;;;;;0.60;0.13;;;19.70;1.00;;;;;;4898799;29;20462;-75
2023/09/01 11:00:29;;;;;;;0.60;0.10;;;19.80;1.00;;;;;;4897669;29;20989;-75
2023/09/01 11:03:29;;;;;;;0.60;0.10;;;19.80;1.00;;;;;;4898503;29;20447;-75
2023/09/01 11:05:58;;;;;;;0.60;0.10;;;19.80;1.00;;;;;;4897599;29;20455;-75
2023/09/01 11:08:26;;;;;;;1.00;0.80;;;19.70;1.00;;;;;;4898177;29;20969;-76
2023/09/01 11:10:55;;;;;;;0.80;0.43;;;19.70;1.00;;;;;;4897191;29;20510;-75
2023/09/01 11:13:26;;;;;;;0.60;0.20;;;19.70;1.00;;;;;;4897738;29;20470;-75
2023/09/01 11:15:54;;;;;;;0.70;0.40;;;19.80;1.00;;;;;;4897381;29;20822;-75
2023/09/01 11:18:24;;;;;;;0.60;0.30;;;19.80;1.00;;;;;;4897467;29;20460;-76
2023/09/01 11:20:54;;;;;;;0.60;0.10;;;19.80;1.00;;;;;;4896899;29;20567;-74
2023/09/01 11:23:23;;;;;;;0.60;0.10;;;19.90;1.00;;;;;;4897347;29;20884;-75
2023/09/01 11:25:55;;;;;;;0.60;0.13;;;19.90;1.00;;;;;;4897245;29;20508;-76
2023/09/01 11:28:23;;;;;;;0.60;0.10;;;;;;;;;;4898267;29;20484;-76
2023/09/01 11:30:53;;;;;;;2.07;1.13;;;19.90;1.00;;;;;;4897687;29;20486;-76
2023/09/01 11:33:22;;;;;;;1.43;1.33;;;19.80;1.00;;;;;;4897414;29;20515;-75
2023/09/01 11:35:51;;;;;;;6.70;0.97;;;;;;;;;;4897088;29;20589;-75
2023/09/01 11:38:20;;;;;;;0.70;0.30;;;19.50;1.00;;;;;;4897677;29;20479;-76
2023/09/01 11:40:49;;;;;;;0.70;0.33;;;19.50;1.00;;;;;;4897099;29;20570;-76
2023/09/01 11:43:19;;;;;;;1.70;1.60;;;19.50;1.00;;;;;;4898092;29;20444;-75
2023/09/01 11:45:48;;;;;;;0.60;0.10;;;19.50;1.00;;;;;;4899548;29;21098;-76
2023/09/01 11:48:24;;;;;;;0.60;0.10;;;19.50;1.00;;;;;;4900371;29;20474;-75
2023/09/01 11:50:53;;;;;;;0.60;0.30;;;19.50;1.00;;;;;;4901597;29;20518;-75
2023/09/01 11:53:26;;;;;;;0.60;0.17;;;19.50;1.00;;;;;;4899520;29;20507;-75
2023/09/01 11:55:58;;;;;;;0.60;0.10;;;19.50;1.00;;;;;;4899243;29;20835;-75
2023/09/01 11:58:26;;;;;;;0.60;0.10;;;19.60;1.00;;;;;;4899512;29;20459;-75
2023/09/01 12:00:54;;;;;;;0.60;0.30;;;19.60;1.00;;;;;;4897272;29;20492;-75
2023/09/01 12:03:25;;;;;;;3.43;1.63;;;19.50;1.00;;;;;;4897949;29;20455;-75
2023/09/01 12:05:53;;;;;;;0.60;0.10;;;19.40;1.00;;;;;;4897163;29;21010;-76
2023/09/01 12:08:25;;;;;;;0.60;0.10;;;19.50;19.90;;;;;;4897367;29;20446;-75
2023/09/01 12:11:05;;;;;;;0.60;0.10;;;19.60;42.90;;;;;;4897714;29;20994;-75
2023/09/01 12:13:35;;;;;;;0.60;0.20;;;;;;;;;;4897281;29;20459;-77
2023/09/01 12:16:04;;;;;;;0.60;0.20;;;19.70;52.20;;;;;;4896468;29;20987;-76
2023/09/01 12:18:36;;;;;;;0.73;0.47;;;19.90;75.20;;;;;;4896010;29;20484;-76
2023/09/01 12:21:05;;;;;;;1.47;0.83;;;19.80;45.90;;;;;;4896245;29;20505;-75
2023/09/01 12:23:38;;;;;;;0.70;0.60;;;19.90;34.10;;;;;;4896454;29;20449;-75
2023/09/01 12:26:06;;;;;;;0.70;0.50;;;;;;;;;;4895565;29;20580;-76
2023/09/01 12:28:36;;;;;;;2.10;0.80;;;20.00;1.00;;;;;;4896539;29;20476;-76
2023/09/01 12:31:07;;;;;;;0.60;0.20;;;20.00;1.00;;;;;;4896559;29;21048;-76
2023/09/01 12:33:37;;;;;;;0.60;0.20;;;20.10;1.00;;;;;;4877990;29;20461;-74
2023/09/01 12:36:06;;;;;;;0.60;0.10;;;;;;;;;;4880900;29;20448;-76
2023/09/01 12:38:34;;;;;;;0.80;0.30;;;20.10;1.00;;;;;;4896066;29;20487;-75
2023/09/01 12:41:03;;;;;;;1.10;0.60;;;;;;;;;;4896087;29;20513;-74
2023/09/01 12:43:32;;;;;;;0.60;0.10;;;;;;;;;;4896868;29;20457;-74
2023/09/01 12:46:00;;;;;;;1.97;0.93;;;;;;;;;;4895542;29;20864;-74
2023/09/01 12:48:28;;;;;;;0.60;0.20;;;20.40;1.00;;;;;;4896346;29;20449;-75
2023/09/01 12:50:58;;;;;;;0.60;0.20;;;20.50;1.00;;;;;;4896057;29;20472;-76
2023/09/01 12:53:26;;;;;;;0.60;0.23;;;20.50;1.00;;;;;;4896483;29;20457;-76
2023/09/01 12:55:54;;;;;;;0.60;0.10;;;20.70;1.00;;;;;;4896334;29;20885;-75
2023/09/01 12:58:22;;;;;;;2.37;1.43;;;20.80;1.00;;;;;;4896748;29;20457;-75
2023/09/01 13:00:50;;;;;;;0.60;0.10;;;20.90;1.00;;;;;;4896719;29;20489;-75
2023/09/01 13:03:18;;;;;;;1.10;1.00;;;20.90;1.00;;;;;;4897199;29;20472;-76
2023/09/01 13:05:49;;;;;;;3.23;0.87;;;;;;;;;;4896263;29;20841;-75
2023/09/01 13:08:18;;;;;;;1.47;0.63;;;20.90;1.00;;;;;;4896696;29;20874;-75
2023/09/01 13:10:47;;;;;;;0.60;0.10;;;20.90;1.00;;;;;;4895675;29;20488;-76
2023/09/01 13:13:16;;;;;;;0.60;0.17;;;21.00;1.00;;;;;;4896856;29;20512;-75
2023/09/01 13:15:48;;;;;;;0.60;0.23;;;21.10;99.90;;;;;;4895667;29;20533;-74
2023/09/01 13:18:19;;;;;;;0.90;0.43;;;;;;;;;;4894055;29;20943;-76
2023/09/01 13:20:47;;;;;;;0.60;0.20;;;21.20;99.90;;;;;;4896325;29;20485;-76
2023/09/01 13:23:15;;;;;;;0.80;0.60;;;;;;;;;;4896432;29;20453;-74
2023/09/01 13:25:45;;;;;;;0.60;0.20;;;21.40;99.90;;;;;;4895528;29;20452;-75
2023/09/01 13:28:14;;;;;;;0.73;0.30;;;;;;;;;;4896055;29;20536;-74
2023/09/01 13:30:42;;;;;;;1.47;1.20;;;21.20;99.90;;;;;;4896222;29;20465;-76
2023/09/01 13:33:10;;;;;;;1.13;0.57;;;21.20;99.90;;;;;;4895850;29;20449;-75
2023/09/01 13:35:39;;;;;;;0.60;0.20;;;21.20;99.90;;;;;;4895925;29;20868;-75
2023/09/01 13:38:07;;;;;;;0.70;0.43;;;;;;;;;;4896808;29;21020;-75
2023/09/01 13:40:37;;;;;;;0.80;0.20;;;21.30;99.90;;;;;;4899212;29;21085;-75
2023/09/01 13:43:06;;;;;;;0.70;0.33;;;21.30;99.90;;;;;;4899187;29;20522;-77
2023/09/01 13:45:37;;;;;;;0.70;0.30;;;21.40;99.90;;;;;;4900060;29;20453;-74
2023/09/01 13:48:05;;;;;;;0.60;0.20;;;21.40;99.90;;;;;;4899224;29;20457;-76
2023/09/01 13:50:34;;;;;;;0.60;0.10;;;;;;;;;;4899837;29;20473;-76
2023/09/01 13:53:02;;;;;;;0.80;0.77;;;;;;;;;;4899784;29;20458;-75
2023/09/01 13:55:30;;;;;;;0.60;0.20;;;;;;;;;;4899049;29;20460;-75
2023/09/01 13:57:58;;;;;;;0.60;0.23;;;;;;;;;;4899801;29;20454;-76
2023/09/01 14:00:28;;;;;;;0.93;0.30;;;21.10;99.90;;;;;;4899202;29;20453;-76
2023/09/01 14:02:56;;;;;;;0.73;0.27;;;21.10;99.90;;;;;;4899892;29;21166;-77
2023/09/01 14:05:24;;;;;;;0.60;0.20;;;21.10;99.90;;;;;;4899242;29;20491;-76
2023/09/01 14:07:52;;;;;;;0.60;0.10;;;;;;;;;;4899181;29;20491;-76
2023/09/01 14:10:20;;;;;;;0.60;0.20;;;21.10;99.90;;;;;;4899337;29;20481;-77
2023/09/01 14:12:48;;;;;;;1.70;1.10;;;20.80;99.90;;;;;;4898535;29;20452;-75
2023/09/01 14:15:16;;;;;;;0.60;0.20;;;;;;;;;;4899280;29;20503;-76
2023/09/01 14:17:46;;;;;;;0.60;0.20;;;20.90;99.90;;;;;;4902419;29;20524;-76
2023/09/01 14:20:14;;;;;;;0.60;0.10;;;20.90;99.90;;;;;;4898484;29;20547;-75
2023/09/01 14:22:42;;;;;;;0.63;0.20;;;;;;;;;;4898558;29;20515;-75
2023/09/01 14:25:10;;;;;;;0.60;0.20;;;20.90;99.90;;;;;;4898541;29;20481;-77
2023/09/01 14:27:38;;;;;;;0.60;0.20;;;;;;;;;;4898254;29;20528;-76
2023/09/01 14:30:08;;;;;;;0.70;0.23;;;21.10;99.90;;;;;;4898909;29;20468;-75
2023/09/01 14:32:35;;;;;;;1.43;0.30;;;21.10;99.90;;;;;;4898991;29;20559;-75
2023/09/01 14:35:05;;;;;;;1.37;0.30;;;21.30;99.90;;;;;;4898849;29;20965;-76
2023/09/01 14:37:33;;;;;;;0.80;0.50;;;;;;;;;;4898787;29;20466;-76
2023/09/01 14:40:02;;;;;;;0.70;0.50;;;21.20;99.90;;;;;;4898978;29;20452;-75
2023/09/01 14:42:30;;;;;;;0.60;0.30;;;21.30;99.90;;;;;;4899102;29;20523;-77
2023/09/01 14:44:58;;;;;;;0.60;0.10;;;21.30;99.90;;;;;;4898401;29;20457;-77
2023/09/01 14:47:26;;;;;;;0.90;0.57;;;;;;;;;;4898757;29;20904;-76
2023/09/01 14:49:54;;;;;;;0.80;0.30;;;21.40;99.90;;;;;;4898378;29;20646;-76
2023/09/01 14:52:24;;;;;;;0.60;0.10;;;21.50;99.90;;;;;;4898919;29;20569;-76
2023/09/01 14:54:52;;;;;;;0.70;0.30;;;;;;;;;;4898883;29;20524;-75
2023/09/01 14:57:20;;;;;;;0.60;0.20;;;21.40;99.90;;;;;;4898949;29;20449;-76
2023/09/01 14:59:48;;;;;;;1.10;0.60;;;;;;;;;;4879680;29;20446;-75
2023/09/01 15:02:16;;;;;;;0.80;0.30;;;21.40;99.90;;;;;;4890945;29;20537;-77
2023/09/01 15:04:44;;;;;;;0.70;0.40;;;;;;;;;;4898760;29;20481;-75
2023/09/01 15:07:12;;;;;;;0.80;0.40;;;21.30;99.90;;;;;;4898745;29;20505;-75
2023/09/01 15:09:41;;;;;;;0.80;0.37;;;21.20;99.90;;;;;;4898398;29;20471;-76
2023/09/01 15:12:10;;;;;;;0.60;0.20;;;;;;;;;;4897994;29;20504;-76
2023/09/01 15:14:38;;;;;;;1.90;0.47;;;21.20;99.90;;;;;;4898220;29;20505;-77
2023/09/01 15:17:06;;;;;;;0.80;0.30;;;;;;;;;;4900196;29;20468;-76
2023/09/01 15:19:36;;;;;;;0.80;0.60;;;21.10;99.90;;;;;;4898573;29;20488;-76
2023/09/01 15:22:04;;;;;;;1.30;0.50;;;21.10;99.90;;;;;;4898739;29;20910;-76
2023/09/01 15:24:32;;;;;;;0.60;0.13;;;;;;;;;;4898909;29;20528;-76
2023/09/01 15:27:02;;;;;;;0.60;0.10;;;21.10;99.90;;;;;;4899107;29;20473;-77
2023/09/01 15:29:32;;;;;;;0.60;0.30;;;21.10;99.90;;;;;;4898133;29;20551;-76
2023/09/01 15:32:00;;;;;;;0.60;0.20;;;;;;;;;;4897688;29;20975;-76
2023/09/01 15:34:29;;;;;;;0.90;0.60;;;;;;;;;;4897650;29;20981;-75
2023/09/01 15:36:57;;;;;;;0.60;0.10;;;;;;;;;;4897747;29;20450;-75
2023/09/01 15:39:28;;;;;;;0.70;0.20;;;;;;;;;;4897604;29;20521;-76
2023/09/01 15:41:56;;;;;;;1.17;0.40;;;;;;;;;;4897574;29;20493;-76
2023/09/01 15:44:25;;;;;;;0.67;0.30;;;21.40;99.90;;;;;;4897545;29;20511;-75
2023/09/01 15:46:54;;;;;;;0.60;0.20;;;;;;;;;;4896733;29;20563;-76
2023/09/01 15:49:22;;;;;;;0.70;0.57;;;;;;;;;;4897460;29;20454;-76
2023/09/01 15:51:50;;;;;;;0.60;0.20;;;21.40;99.90;;;;;;4897128;29;21011;-76
2023/09/01 15:54:18;;;;;;;0.80;0.53;;;;;;;;;;4896909;29;20460;-76
2023/09/01 15:56:46;;;;;;;0.60;0.20;;;21.40;99.90;;;;;;4896954;29;20452;-76
2023/09/01 15:59:14;;;;;;;1.30;0.97;;;;;;;;;;4896860;29;20804;-75
2023/09/01 16:01:43;;;;;;;0.60;0.20;;;21.50;99.90;;;;;;4896985;29;20564;-76
2023/09/01 16:04:11;;;;;;;0.80;0.43;;;21.30;99.90;;;;;;4897781;29;20987;-76
2023/09/01 16:06:39;;;;;;;0.70;0.30;;;21.40;99.90;;;;;;4897062;29;20455;-77
2023/09/01 16:09:07;;;;;;;0.60;0.20;;;21.40;99.90;;;;;;4896965;29;20456;-76
2023/09/01 16:11:36;;;;;;;0.87;0.53;;;21.40;99.90;;;;;;4897157;29;20476;-77
2023/09/01 16:14:05;;;;;;;0.70;0.30;;;;;;;;;;4896785;29;20953;-77
2023/09/01 16:16:33;;;;;;;0.60;0.20;;;;;;;;;;4896831;29;20476;-76
2023/09/01 16:19:02;;;;;;;0.60;0.20;;;21.50;99.90;;;;;;4896218;29;20946;-77
2023/09/01 16:21:31;;;;;;;0.60;0.20;;;;;;;;;;4897058;29;20532;-78
2023/09/01 16:23:58;;;;;;;0.83;0.80;;;21.60;99.90;;;;;;4896489;29;20981;-76
2023/09/01 16:26:27;;;;;;;0.60;0.10;;;21.70;99.90;;;;;;4912340;23;20569;-75
2023/09/01 16:28:56;;;;;;;0.90;0.50;;;21.60;99.90;;;;;;4897887;29;20441;-74
2023/09/01 16:31:24;;;;;;;0.70;0.30;;;21.60;99.90;;;;;;4895877;29;20481;-76
2023/09/01 16:33:52;;;;;;;0.90;0.53;;;;;;;;;;4896790;29;20835;-74
2023/09/01 16:36:22;;;;;;;0.70;0.30;;;21.50;99.90;;;;;;4899096;29;20741;-75
2023/09/01 16:38:50;;;;;;;0.90;0.67;;;21.50;99.90;;;;;;4898709;29;20532;-76
2023/09/01 16:41:18;;;;;;;0.60;0.10;;;21.40;99.90;;;;;;4896732;29;20449;-75
2023/09/01 16:43:45;;;;;;;0.70;0.40;;;21.40;99.90;;;;;;4886730;29;20564;-76
2023/09/01 16:46:14;;;;;;;0.60;0.20;;;21.40;99.90;;;;;;4879602;29;20533;-75
2023/09/01 16:48:41;;;;;;;1.07;0.43;;;21.40;99.90;;;;;;4879507;29;20457;-76
2023/09/01 16:51:10;;;;;;;0.73;0.47;;;21.30;99.90;;;;;;4879159;29;20469;-74
2023/09/01 16:53:39;;;;;;;0.60;0.10;;;21.20;99.90;;;;;;4890388;29;20478;-76
2023/09/01 16:56:07;;;;;;;0.70;0.27;;;21.30;99.90;;;;;;4897883;29;20473;-74
2023/09/01 16:58:35;;;;;;;0.60;0.20;;;21.30;99.90;;;;;;4896850;29;20449;-76
2023/09/01 17:01:03;;;;;;;1.80;1.70;;;21.50;99.90;;;;;;4896638;29;20488;-75
2023/09/01 17:03:31;;;;;;;0.60;0.10;;;21.70;99.90;;;;;;4895650;29;20547;-75
2023/09/01 17:05:59;;;;;;;0.60;0.17;;;21.70;99.90;;;;;;4896296;29;20508;-75
2023/09/01 17:08:27;;;;;;;0.70;0.50;;;21.80;99.90;;;;;;4896309;29;20960;-75
2023/09/01 17:10:57;;;;;;;0.70;0.40;;;;;;;;;;4897120;29;20475;-74
2023/09/01 17:13:25;;;;;;;0.67;0.20;;;21.70;99.90;;;;;;4898866;29;20536;-77
2023/09/01 17:15:53;;;;;;;0.70;0.30;;;21.60;99.90;;;;;;4900470;29;20504;-74
2023/09/01 17:18:21;;;;;;;0.60;0.20;;;21.60;99.90;;;;;;4903330;29;20543;-78
2023/09/01 17:20:53;;;;;;;0.60;0.10;;;21.60;99.90;;;;;;4904067;29;20938;-75
2023/09/01 17:23:21;;;;;;;0.80;0.30;;;21.60;99.90;;;;;;4903213;29;20485;-75
2023/09/01 17:25:49;;;;;;;0.60;0.20;;;21.50;99.90;;;;;;4903518;29;20484;-75
2023/09/01 17:28:18;;;;;;;6.33;0.80;;;21.40;99.90;;;;;;4900596;29;20476;-74
2023/09/01 17:30:46;;;;;;;0.60;0.20;;;21.40;99.90;;;;;;4903772;29;20473;-75